Time;durP1;ratioP1;P1;durP2;ratioP2;P2;SDS_P1;SDS_P2;PMS_P1;PMS_P2;Temp;Humidity;BMP_temperature;BMP_pressure;BME280_temperature;BME280_humidity;BME280_pressure;Samples;Min_cycle;Max_cycle;Signal;HPM_P1;HPM_P2
2021/11/11 00:00:51;;;;;;;5.03;4.53;;;19.50;65.30;;;;;;5093503;28;20092;-37
2021/11/11 00:03:18;;;;;;;4.43;3.90;;;19.50;65.40;;;;;;5084472;28;20072;-38
2021/11/11 00:05:44;;;;;;;4.65;4.10;;;19.40;65.30;;;;;;5084394;28;20049;-37
2021/11/11 00:08:11;;;;;;;4.93;4.20;;;19.40;65.30;;;;;;5092859;28;20024;-37
2021/11/11 00:10:37;;;;;;;4.55;4.00;;;19.40;65.40;;;;;;5104384;28;20028;-37
2021/11/11 00:13:04;;;;;;;3.35;3.05;;;19.40;65.20;;;;;;5104593;28;20048;-38
2021/11/11 00:15:31;;;;;;;4.73;4.33;;;19.40;65.30;;;;;;5103294;28;20031;-38
2021/11/11 00:17:57;;;;;;;5.00;4.50;;;19.40;65.00;;;;;;5103289;28;20179;-37
2021/11/11 00:20:26;;;;;;;4.88;4.03;;;19.40;64.80;;;;;;5102911;28;20031;-37
2021/11/11 00:22:52;;;;;;;5.10;4.55;;;19.40;64.70;;;;;;5103232;28;20439;-38
2021/11/11 00:25:19;;;;;;;5.00;4.50;;;19.40;64.90;;;;;;5103186;28;20028;-37
2021/11/11 00:27:46;;;;;;;6.07;5.03;;;19.30;64.70;;;;;;5102948;28;20043;-37
2021/11/11 00:30:13;;;;;;;5.35;4.85;;;19.30;64.60;;;;;;5104000;28;20028;-37
2021/11/11 00:32:40;;;;;;;5.22;4.72;;;19.30;64.70;;;;;;5104373;28;20024;-38
2021/11/11 00:35:16;;;;;;;5.22;4.72;;;19.30;64.70;;;;;;5104316;28;20020;-38
2021/11/11 00:37:42;;;;;;;5.28;4.78;;;19.30;64.70;;;;;;5100183;28;20037;-38
2021/11/11 00:40:09;;;;;;;6.10;5.50;;;19.30;64.80;;;;;;5083451;28;20036;-37
2021/11/11 00:42:35;;;;;;;5.13;4.70;;;19.20;64.60;;;;;;5088621;28;20043;-37
2021/11/11 00:45:01;;;;;;;5.55;5.00;;;19.20;64.70;;;;;;5103919;28;20028;-37
2021/11/11 00:47:27;;;;;;;6.63;5.93;;;19.20;64.70;;;;;;5082380;28;20032;-38
2021/11/11 00:49:53;;;;;;;6.10;5.30;;;19.20;64.70;;;;;;5083462;28;20025;-38
2021/11/11 00:52:19;;;;;;;5.95;5.35;;;19.20;64.70;;;;;;5083733;28;20124;-38
2021/11/11 00:54:46;;;;;;;6.03;5.43;;;19.20;64.60;;;;;;5083579;28;20047;-37
2021/11/11 00:57:12;;;;;;;6.30;5.70;;;19.10;64.50;;;;;;5082121;28;20032;-38
2021/11/11 00:59:41;;;;;;;6.35;5.75;;;19.10;64.60;;;;;;5083173;28;20367;-38
2021/11/11 01:02:09;;;;;;;6.65;5.95;;;19.10;64.70;;;;;;5083536;28;20025;-37
2021/11/11 01:04:36;;;;;;;6.63;5.90;;;19.10;64.60;;;;;;5082079;28;20032;-37
2021/11/11 01:07:03;;;;;;;7.00;6.30;;;19.10;64.60;;;;;;5081571;28;20061;-37
2021/11/11 01:09:30;;;;;;;6.97;6.28;;;19.10;64.70;;;;;;5100923;28;20036;-37
2021/11/11 01:11:57;;;;;;;7.68;6.53;;;19.00;64.60;;;;;;5102438;28;20054;-38
2021/11/11 01:14:23;;;;;;;7.55;6.75;;;19.00;64.60;;;;;;5103199;28;20028;-37
2021/11/11 01:16:49;;;;;;;7.13;6.43;;;19.00;64.70;;;;;;5101960;28;20027;-37
2021/11/11 01:19:15;;;;;;;7.20;6.50;;;19.00;64.60;;;;;;5103523;28;20028;-37
2021/11/11 01:21:42;;;;;;;7.10;6.40;;;19.00;64.70;;;;;;5103190;28;20028;-37
2021/11/11 01:24:08;;;;;;;7.60;6.88;;;19.00;64.70;;;;;;5103493;28;20036;-38
2021/11/11 01:26:34;;;;;;;7.43;6.72;;;18.90;64.60;;;;;;5103224;28;20096;-38
2021/11/11 01:29:00;;;;;;;7.70;6.97;;;18.90;64.60;;;;;;5102052;28;20070;-37
2021/11/11 01:31:26;;;;;;;7.85;7.05;;;18.90;64.60;;;;;;5102711;28;20020;-38
2021/11/11 01:33:52;;;;;;;8.30;7.50;;;18.90;64.70;;;;;;5103289;28;20047;-37
2021/11/11 01:36:18;;;;;;;8.13;7.32;;;18.80;64.60;;;;;;5103003;28;20028;-37
2021/11/11 01:38:44;;;;;;;8.25;7.45;;;18.80;64.70;;;;;;5090307;28;20029;-38
2021/11/11 01:41:11;;;;;;;8.18;7.38;;;18.80;64.70;;;;;;5082529;28;20094;-38
2021/11/11 01:43:37;;;;;;;8.60;7.70;;;18.80;64.70;;;;;;5082865;28;20050;-37
2021/11/11 01:46:03;;;;;;;8.50;7.70;;;18.80;64.70;;;;;;5090541;28;20542;-37
2021/11/11 01:48:29;;;;;;;8.80;7.90;;;18.80;64.80;;;;;;5101639;28;20043;-37
2021/11/11 01:50:56;;;;;;;8.07;7.28;;;18.80;64.80;;;;;;5102611;28;20035;-38
2021/11/11 01:53:24;;;;;;;9.00;8.10;;;18.70;64.80;;;;;;5101300;28;20024;-37
2021/11/11 01:55:50;;;;;;;8.45;7.55;;;18.70;64.80;;;;;;5099064;28;20030;-37
2021/11/11 01:58:16;;;;;;;9.07;8.18;;;18.70;64.80;;;;;;5084906;28;20026;-37
2021/11/11 02:01:03;;;;;;;9.32;8.32;;;18.70;64.90;;;;;;5102644;28;20020;-37
2021/11/11 02:03:29;;;;;;;9.32;8.43;;;18.70;64.80;;;;;;5102622;28;20024;-38
2021/11/11 02:05:55;;;;;;;9.73;8.82;;;18.70;64.90;;;;;;5102684;28;20056;-37
2021/11/11 02:08:22;;;;;;;9.32;8.30;;;18.60;64.80;;;;;;5091892;28;20033;-37
2021/11/11 02:10:48;;;;;;;9.60;8.65;;;18.60;64.90;;;;;;5094085;28;20021;-38
2021/11/11 02:13:14;;;;;;;9.18;8.27;;;18.60;65.40;;;;;;5102766;28;20095;-37
2021/11/11 02:15:40;;;;;;;8.95;8.05;;;18.60;64.90;;;;;;5102727;28;20032;-38
2021/11/11 02:18:07;;;;;;;8.98;8.07;;;18.60;65.00;;;;;;5102949;28;20032;-37
2021/11/11 02:20:36;;;;;;;9.55;8.63;;;18.50;64.90;;;;;;5102549;28;20108;-37
2021/11/11 02:23:03;;;;;;;9.00;8.10;;;18.50;64.90;;;;;;5102629;28;20484;-37
2021/11/11 02:25:29;;;;;;;;;;;18.50;65.00;;;;;;5092907;28;20044;-38
2021/11/11 02:28:04;;;;;;;9.93;8.75;;;18.50;65.10;;;;;;5084649;28;20348;-38
2021/11/11 02:30:31;;;;;;;9.77;8.43;;;18.40;65.10;;;;;;5086363;28;20029;-38
2021/11/11 02:32:57;;;;;;;10.50;9.40;;;18.50;65.10;;;;;;5086264;28;20025;-37
2021/11/11 02:35:23;;;;;;;10.25;9.23;;;18.40;65.10;;;;;;5086407;28;20021;-44
2021/11/11 02:37:50;;;;;;;10.25;9.25;;;18.40;65.10;;;;;;5086280;28;20071;-38
2021/11/11 02:40:23;;;;;;;9.80;8.90;;;18.40;65.10;;;;;;5092538;28;20043;-37
2021/11/11 02:42:49;;;;;;;9.75;8.75;;;18.40;65.20;;;;;;5106248;28;20400;-38
2021/11/11 02:45:27;;;;;;;12.00;9.18;;;18.30;65.10;;;;;;5106731;28;20024;-38
2021/11/11 02:47:53;;;;;;;;;;;18.30;65.10;;;;;;5105659;28;20052;-38
2021/11/11 02:50:20;;;;;;;9.70;8.70;;;18.30;65.20;;;;;;5105145;28;19908;-37
2021/11/11 02:52:48;;;;;;;10.48;9.43;;;18.30;65.20;;;;;;5106208;28;20043;-38
2021/11/11 02:55:14;;;;;;;10.07;9.02;;;18.30;65.30;;;;;;5106313;28;20057;-38
2021/11/11 02:57:41;;;;;;;9.90;8.90;;;18.30;65.30;;;;;;5104942;28;20036;-38
2021/11/11 03:00:32;;;;;;;9.73;8.73;;;18.30;65.40;;;;;;5106084;28;20469;-37
2021/11/11 03:02:58;;;;;;;10.20;9.18;;;18.20;65.30;;;;;;5106033;28;20032;-39
2021/11/11 03:05:29;;;;;;;10.13;9.15;;;18.20;65.30;;;;;;5106205;28;20063;-37
2021/11/11 03:07:55;;;;;;;9.95;8.95;;;18.20;65.40;;;;;;5100134;28;20027;-37
2021/11/11 03:10:23;;;;;;;9.48;8.57;;;18.20;65.40;;;;;;5092648;28;20032;-37
2021/11/11 03:12:49;;;;;;;9.95;8.95;;;18.10;65.40;;;;;;5104903;28;20013;-38
2021/11/11 03:15:16;;;;;;;9.65;8.65;;;18.10;65.50;;;;;;5104876;28;20020;-38
2021/11/11 03:17:42;;;;;;;9.95;8.95;;;18.10;65.50;;;;;;5104725;28;20036;-37
2021/11/11 03:20:09;;;;;;;9.87;8.87;;;18.10;65.60;;;;;;5104611;28;20506;-37
2021/11/11 03:22:35;;;;;;;10.13;9.13;;;18.10;65.60;;;;;;5105734;28;20103;-38
2021/11/11 03:25:02;;;;;;;9.65;8.65;;;18.00;65.70;;;;;;5105100;28;20679;-38
2021/11/11 03:27:30;;;;;;;10.10;9.10;;;18.10;65.70;;;;;;5104561;28;20024;-38
2021/11/11 03:29:56;;;;;;;10.15;9.15;;;18.00;65.60;;;;;;5105733;28;20092;-38
2021/11/11 03:32:23;;;;;;;10.13;9.13;;;18.00;65.70;;;;;;5105425;28;20024;-37
2021/11/11 03:34:49;;;;;;;10.65;9.55;;;18.00;65.70;;;;;;5105744;28;20024;-37
2021/11/11 03:37:15;;;;;;;9.60;8.68;;;18.00;65.70;;;;;;5104516;28;20071;-37
2021/11/11 03:39:43;;;;;;;9.75;8.80;;;18.00;65.70;;;;;;5084817;28;20036;-38
2021/11/11 03:42:10;;;;;;;9.85;8.82;;;17.90;65.70;;;;;;5113637;28;20138;-37
2021/11/11 03:44:36;;;;;;;10.73;8.88;;;17.90;65.80;;;;;;5104456;28;20095;-37
2021/11/11 03:47:03;;;;;;;10.85;9.32;;;17.90;65.80;;;;;;5105432;28;20032;-37
2021/11/11 03:49:31;;;;;;;9.98;8.98;;;17.90;65.90;;;;;;5105319;28;20024;-44
2021/11/11 03:51:57;;;;;;;10.68;9.20;;;17.90;65.90;;;;;;5103721;28;20055;-37
2021/11/11 03:54:26;;;;;;;10.07;9.07;;;17.80;65.80;;;;;;5105216;28;20020;-37
2021/11/11 03:56:55;;;;;;;8.85;7.95;;;17.80;65.90;;;;;;5104855;28;20025;-37
2021/11/11 03:59:22;;;;;;;9.85;8.85;;;17.80;65.90;;;;;;5105264;28;20092;-37
2021/11/11 04:01:48;;;;;;;9.60;8.70;;;17.80;66.00;;;;;;5105148;28;20661;-37
2021/11/11 04:04:14;;;;;;;9.75;8.63;;;17.80;66.00;;;;;;5105000;28;20028;-38
2021/11/11 04:06:40;;;;;;;9.20;8.30;;;17.80;66.00;;;;;;5104777;28;20063;-37
2021/11/11 04:09:06;;;;;;;9.90;8.68;;;17.80;66.10;;;;;;5104666;28;20028;-37
2021/11/11 04:11:33;;;;;;;9.73;8.70;;;17.70;66.10;;;;;;5104159;28;20035;-37
2021/11/11 04:13:59;;;;;;;10.77;9.67;;;17.70;66.10;;;;;;5104613;28;20024;-37
2021/11/11 04:16:25;;;;;;;10.07;9.07;;;17.70;66.10;;;;;;5104994;28;20372;-38
2021/11/11 04:18:52;;;;;;;10.18;9.15;;;17.70;66.10;;;;;;5104899;28;20020;-37
2021/11/11 04:21:18;;;;;;;10.80;9.45;;;17.70;66.20;;;;;;5104682;28;20024;-37
2021/11/11 04:23:45;;;;;;;9.93;8.88;;;17.70;66.10;;;;;;5104414;28;20092;-38
2021/11/11 04:31:22;;;;;;;10.30;9.20;;;17.60;66.20;;;;;;5104535;28;20020;-38
2021/11/11 04:33:51;;;;;;;10.35;9.30;;;17.60;66.20;;;;;;5104419;28;20032;-37
2021/11/11 04:37:08;;;;;;;9.60;8.60;;;17.60;66.30;;;;;;5104314;28;20047;-38
2021/11/11 05:05:29;;;;;;;10.00;8.68;;;17.40;66.60;;;;;;5103572;28;20055;-38
2021/11/11 05:07:56;;;;;;;9.82;8.82;;;17.40;66.60;;;;;;5102388;28;20020;-37
2021/11/11 05:10:22;;;;;;;10.13;9.13;;;17.40;66.60;;;;;;5103477;28;20036;-37
2021/11/11 05:12:49;;;;;;;10.27;9.25;;;17.40;66.60;;;;;;5100677;28;21221;-38
2021/11/11 05:15:16;;;;;;;10.25;9.25;;;17.40;66.70;;;;;;5083256;28;20035;-37
2021/11/11 05:17:45;;;;;;;10.02;9.02;;;17.30;66.60;;;;;;5083194;28;20039;-37
2021/11/11 05:20:15;;;;;;;10.15;9.05;;;17.30;66.70;;;;;;5083147;28;20573;-40
2021/11/11 05:22:41;;;;;;;10.45;9.30;;;17.30;66.80;;;;;;5083144;28;20056;-37
2021/11/11 05:25:08;;;;;;;10.30;9.20;;;17.30;66.80;;;;;;5083018;28;20028;-38
2021/11/11 05:27:36;;;;;;;10.23;9.23;;;17.30;66.80;;;;;;5082981;28;20032;-38
2021/11/11 05:30:07;;;;;;;10.32;9.30;;;17.30;66.90;;;;;;5082841;28;20040;-38
2021/11/11 05:32:33;;;;;;;10.65;8.85;;;17.30;66.90;;;;;;5082934;28;20037;-37
2021/11/11 05:35:04;;;;;;;9.27;8.38;;;17.30;66.90;;;;;;5089469;28;20024;-38
2021/11/11 05:37:30;;;;;;;10.05;9.02;;;17.20;66.90;;;;;;5083080;28;20020;-38
2021/11/11 05:39:56;;;;;;;9.88;8.88;;;17.20;66.90;;;;;;5082918;28;20040;-38
2021/11/11 05:42:22;;;;;;;10.70;9.60;;;17.20;67.00;;;;;;5098229;28;20027;-37
2021/11/11 05:44:48;;;;;;;10.40;9.35;;;17.20;67.00;;;;;;5118190;28;20032;-37
2021/11/11 05:47:15;;;;;;;10.05;9.02;;;17.20;67.00;;;;;;5103031;28;20035;-37
2021/11/11 05:49:42;;;;;;;9.82;8.82;;;17.20;67.00;;;;;;5100529;28;20024;-38
2021/11/11 05:52:08;;;;;;;10.23;8.88;;;17.10;66.90;;;;;;5101698;28;20036;-38
2021/11/11 05:54:37;;;;;;;10.70;9.60;;;17.10;67.00;;;;;;5100385;28;20031;-37
2021/11/11 05:57:05;;;;;;;10.77;8.63;;;17.10;67.00;;;;;;5081226;28;20033;-38
2021/11/11 05:59:31;;;;;;;;;;;17.10;67.00;;;;;;5083257;28;20080;-38
2021/11/11 06:01:57;;;;;;;9.68;8.68;;;17.10;67.10;;;;;;5082368;28;19955;-38
2021/11/11 06:04:23;;;;;;;10.73;9.55;;;17.10;67.00;;;;;;5082491;28;20512;-38
2021/11/11 06:06:49;;;;;;;10.10;9.02;;;17.10;67.10;;;;;;5082324;28;20060;-38
2021/11/11 06:09:15;;;;;;;10.98;9.73;;;17.10;67.10;;;;;;5099861;28;20020;-38
2021/11/11 06:11:42;;;;;;;10.48;9.40;;;17.00;67.10;;;;;;5090189;28;20039;-37
2021/11/11 06:14:08;;;;;;;11.77;9.20;;;17.00;67.30;;;;;;5096890;28;20118;-38
2021/11/11 06:16:34;;;;;;;9.88;8.88;;;17.00;67.20;;;;;;5102696;28;20039;-37
2021/11/11 06:19:01;;;;;;;9.88;8.88;;;17.00;67.20;;;;;;5102667;28;20109;-38
2021/11/11 06:21:27;;;;;;;9.73;8.75;;;17.00;67.30;;;;;;5102519;28;20028;-38
2021/11/11 06:23:53;;;;;;;9.95;8.65;;;17.00;67.30;;;;;;5102613;28;20031;-38
2021/11/11 06:26:23;;;;;;;10.57;9.10;;;17.00;67.30;;;;;;5102422;28;20038;-38
2021/11/11 06:28:50;;;;;;;10.55;9.45;;;16.90;67.30;;;;;;5102534;28;20272;-38
2021/11/11 06:31:16;;;;;;;10.63;9.33;;;16.90;67.30;;;;;;5102607;28;20136;-37
2021/11/11 06:33:42;;;;;;;10.18;9.18;;;16.90;67.30;;;;;;5101903;28;20268;-38
2021/11/11 06:36:09;;;;;;;12.35;9.90;;;16.90;67.30;;;;;;5102341;28;20039;-38
2021/11/11 06:38:35;;;;;;;10.02;9.00;;;16.90;67.30;;;;;;5091069;28;20028;-37
2021/11/11 06:41:01;;;;;;;9.68;8.68;;;16.90;67.40;;;;;;5082262;28;20028;-38
2021/11/11 06:43:27;;;;;;;10.48;9.35;;;16.90;67.30;;;;;;5090966;28;20096;-38
2021/11/11 06:45:54;;;;;;;11.23;9.80;;;16.90;67.40;;;;;;5100653;28;20036;-38
2021/11/11 06:48:20;;;;;;;10.60;9.45;;;16.90;67.40;;;;;;5092707;28;20028;-38
2021/11/11 06:50:46;;;;;;;9.68;8.75;;;16.80;67.40;;;;;;5082307;28;20040;-38
2021/11/11 06:53:14;;;;;;;11.20;9.40;;;16.80;67.40;;;;;;5082060;28;20041;-38
2021/11/11 06:55:41;;;;;;;;;;;16.80;67.50;;;;;;5082329;28;20055;-38
2021/11/11 06:58:08;;;;;;;9.63;8.70;;;16.80;67.50;;;;;;5082150;28;20436;-38
2021/11/11 07:00:34;;;;;;;10.13;8.90;;;16.80;67.50;;;;;;5082548;28;20054;-38
2021/11/11 07:03:01;;;;;;;10.07;8.97;;;16.80;67.60;;;;;;5082114;28;20103;-38
2021/11/11 07:05:27;;;;;;;9.88;8.88;;;16.80;67.60;;;;;;5080275;28;20048;-38
2021/11/11 07:07:53;;;;;;;10.60;9.20;;;16.80;67.60;;;;;;5087818;28;20089;-38
2021/11/11 07:10:19;;;;;;;10.25;9.02;;;16.70;67.60;;;;;;5101438;28;20031;-38
2021/11/11 07:12:45;;;;;;;8.85;6.50;;;16.70;67.60;;;;;;5102434;28;20084;-38
2021/11/11 07:15:13;;;;;;;10.57;9.45;;;16.70;67.60;;;;;;5105804;28;20389;-38
2021/11/11 07:17:39;;;;;;;9.95;8.82;;;16.70;67.60;;;;;;5105844;28;20027;-38
2021/11/11 07:20:07;;;;;;;9.85;8.85;;;16.80;67.80;;;;;;5105656;28;20496;-38
2021/11/11 07:22:34;;;;;;;11.15;9.55;;;16.70;67.60;;;;;;5105853;28;20089;-38
2021/11/11 07:25:00;;;;;;;9.95;8.90;;;16.70;67.70;;;;;;5105278;28;20062;-38
2021/11/11 07:27:26;;;;;;;12.07;9.57;;;16.70;67.70;;;;;;5105121;28;20040;-38
2021/11/11 07:29:52;;;;;;;9.73;8.77;;;16.70;67.80;;;;;;5105720;28;20035;-38
2021/11/11 07:32:18;;;;;;;11.18;9.40;;;16.70;67.70;;;;;;5105618;28;20024;-38
2021/11/11 07:34:45;;;;;;;10.23;9.07;;;16.70;67.70;;;;;;5105572;28;20034;-37
2021/11/11 07:37:11;;;;;;;10.88;9.73;;;16.70;67.80;;;;;;5105427;28;20129;-38
2021/11/11 07:39:37;;;;;;;10.05;9.02;;;16.60;67.70;;;;;;5103562;28;20056;-38
2021/11/11 07:42:03;;;;;;;10.95;9.27;;;16.60;67.70;;;;;;5103020;28;20127;-38
2021/11/11 07:44:29;;;;;;;11.48;9.23;;;16.60;67.70;;;;;;5105151;28;20028;-38
2021/11/11 07:46:56;;;;;;;10.85;9.68;;;16.60;67.80;;;;;;5105104;28;20040;-37
2021/11/11 07:49:22;;;;;;;9.52;8.52;;;16.60;67.80;;;;;;5105220;28;20151;-37
2021/11/11 07:51:48;;;;;;;9.77;8.77;;;16.60;67.90;;;;;;5105300;28;20036;-37
2021/11/11 07:54:14;;;;;;;9.30;8.38;;;16.60;67.90;;;;;;5105245;28;20044;-37
2021/11/11 07:56:42;;;;;;;11.02;8.98;;;16.50;67.90;;;;;;5104843;28;20260;-37
2021/11/11 07:59:08;;;;;;;10.25;9.23;;;16.60;68.00;;;;;;5104508;28;20547;-37
2021/11/11 08:01:34;;;;;;;10.55;8.95;;;16.50;67.90;;;;;;5105141;28;20024;-37
2021/11/11 08:04:00;;;;;;;10.45;9.32;;;16.50;68.00;;;;;;5105128;28;20032;-37
2021/11/11 08:06:26;;;;;;;12.18;9.48;;;16.50;68.00;;;;;;5104439;28;20122;-37
2021/11/11 08:08:53;;;;;;;10.52;9.43;;;16.50;68.00;;;;;;5104610;28;20032;-38
2021/11/11 08:11:19;;;;;;;9.30;8.32;;;16.50;68.00;;;;;;5104703;28;20038;-37
2021/11/11 08:13:45;;;;;;;10.23;9.15;;;16.50;68.10;;;;;;5104579;28;20028;-37
2021/11/11 08:16:11;;;;;;;9.35;8.40;;;16.50;68.00;;;;;;5104291;28;20028;-37
2021/11/11 08:18:37;;;;;;;9.13;8.20;;;16.50;68.40;;;;;;5104687;28;20024;-37
2021/11/11 08:21:03;;;;;;;10.05;8.40;;;16.60;68.60;;;;;;5104690;28;20043;-37
2021/11/11 08:23:30;;;;;;;10.45;8.70;;;16.60;68.60;;;;;;5104680;28;20119;-37
2021/11/11 08:26:02;;;;;;;10.02;8.52;;;16.60;68.60;;;;;;5103410;28;20450;-37
2021/11/11 08:28:28;;;;;;;9.90;8.73;;;16.60;68.50;;;;;;5104431;28;20031;-37
2021/11/11 08:30:55;;;;;;;10.15;8.75;;;16.50;68.50;;;;;;5104486;28;20601;-37
2021/11/11 08:33:21;;;;;;;9.52;8.50;;;16.50;68.50;;;;;;5104298;28;20035;-37
2021/11/11 08:35:47;;;;;;;9.35;8.38;;;16.50;68.50;;;;;;5104023;28;20024;-37
2021/11/11 08:38:13;;;;;;;10.53;8.90;;;16.50;68.40;;;;;;5095551;28;20039;-37
2021/11/11 08:40:40;;;;;;;9.65;8.65;;;16.50;68.40;;;;;;5094934;28;20077;-37
2021/11/11 08:43:06;;;;;;;9.23;8.25;;;16.50;68.50;;;;;;5096952;28;20087;-37
2021/11/11 08:45:33;;;;;;;9.65;8.68;;;16.50;68.50;;;;;;5082298;28;20082;-37
2021/11/11 08:48:01;;;;;;;9.60;8.40;;;16.50;68.50;;;;;;5083565;28;20039;-37
2021/11/11 08:50:29;;;;;;;9.40;8.48;;;16.50;68.50;;;;;;5083747;28;20560;-37
2021/11/11 08:52:57;;;;;;;8.85;8.00;;;16.50;69.00;;;;;;5083843;28;20050;-37
2021/11/11 08:55:25;;;;;;;9.52;8.52;;;16.60;69.10;;;;;;5083540;28;20021;-37
2021/11/11 08:57:51;;;;;;;8.98;8.07;;;16.60;69.20;;;;;;5083358;28;20044;-37
2021/11/11 09:00:23;;;;;;;8.70;7.82;;;16.60;69.60;;;;;;5083558;28;20020;-37
2021/11/11 09:02:51;;;;;;;9.55;8.02;;;16.60;68.90;;;;;;5083556;28;20029;-37
2021/11/11 09:05:18;;;;;;;9.90;8.02;;;16.60;68.90;;;;;;5082012;28;20535;-37
2021/11/11 09:07:44;;;;;;;9.98;8.80;;;16.50;68.70;;;;;;5083402;28;20031;-38
2021/11/11 09:10:15;;;;;;;8.85;7.97;;;16.50;68.80;;;;;;5090311;28;20035;-37
2021/11/11 09:12:41;;;;;;;9.48;8.15;;;16.50;68.70;;;;;;5103568;28;20059;-37
2021/11/11 09:15:10;;;;;;;8.98;8.07;;;16.50;68.70;;;;;;5103655;28;20560;-37
2021/11/11 09:17:38;;;;;;;8.63;7.72;;;16.50;68.70;;;;;;5103416;28;20039;-37
2021/11/11 09:20:06;;;;;;;8.45;7.60;;;16.50;68.70;;;;;;5103308;28;20047;-37
2021/11/11 09:22:34;;;;;;;9.63;8.30;;;16.50;69.10;;;;;;5103382;28;20028;-37
2021/11/11 09:25:05;;;;;;;8.45;7.55;;;16.60;69.30;;;;;;5101853;28;20030;-37
2021/11/11 09:27:32;;;;;;;8.90;8.00;;;16.70;69.40;;;;;;5101551;28;20104;-37
2021/11/11 09:29:58;;;;;;;9.00;8.10;;;16.60;69.10;;;;;;5102935;28;20035;-37
2021/11/11 09:32:24;;;;;;;8.10;7.30;;;16.60;69.00;;;;;;5103251;28;20036;-38
2021/11/11 09:34:50;;;;;;;8.98;7.85;;;16.60;69.00;;;;;;5103279;28;20115;-37
2021/11/11 09:37:16;;;;;;;9.07;7.85;;;16.60;69.00;;;;;;5101952;28;20035;-37
2021/11/11 09:39:43;;;;;;;8.75;7.85;;;16.60;68.90;;;;;;5086033;28;20031;-37
2021/11/11 09:42:09;;;;;;;9.68;7.93;;;16.60;68.90;;;;;;5102294;28;20020;-37
2021/11/11 09:44:35;;;;;;;10.02;8.18;;;16.60;68.90;;;;;;5102677;28;20028;-37
2021/11/11 09:47:02;;;;;;;9.57;8.27;;;16.50;68.80;;;;;;5099200;28;20037;-37
2021/11/11 09:49:28;;;;;;;7.93;7.20;;;16.50;68.80;;;;;;5084968;28;20028;-37
2021/11/11 09:51:55;;;;;;;8.27;7.40;;;16.60;69.20;;;;;;5102840;28;20035;-37
2021/11/11 09:59:38;;;;;;;8.23;6.95;;;16.70;69.20;;;;;;5102867;28;20030;-37
2021/11/11 10:02:05;;;;;;;8.90;7.40;;;16.60;69.20;;;;;;5102876;28;20035;-37
2021/11/11 10:04:32;;;;;;;8.43;7.53;;;16.60;69.10;;;;;;5102743;28;20099;-37
2021/11/11 10:06:58;;;;;;;7.47;6.77;;;16.60;69.10;;;;;;5102444;28;20052;-37
2021/11/11 10:09:25;;;;;;;8.27;6.87;;;16.60;69.00;;;;;;5085009;28;20273;-37
2021/11/11 10:11:59;;;;;;;8.90;7.72;;;16.60;69.00;;;;;;5100719;28;20039;-37
2021/11/11 10:14:30;;;;;;;8.60;7.70;;;16.60;68.90;;;;;;5102545;28;20036;-37
2021/11/11 10:17:01;;;;;;;7.97;7.18;;;16.60;68.80;;;;;;5102628;28;20048;-37
2021/11/11 10:19:29;;;;;;;7.93;7.13;;;16.50;68.70;;;;;;5102405;28;20061;-37
2021/11/11 10:22:05;;;;;;;8.13;7.32;;;16.50;68.70;;;;;;5102703;28;20038;-37
2021/11/11 10:24:46;;;;;;;8.73;7.78;;;16.50;68.70;;;;;;5102718;28;20038;-37
2021/11/11 10:27:24;;;;;;;8.50;7.70;;;16.50;68.70;;;;;;5101352;28;20055;-37
2021/11/11 10:30:05;;;;;;;7.90;7.10;;;16.50;68.70;;;;;;5102604;28;20031;-37
2021/11/11 10:32:47;;;;;;;9.52;8.38;;;16.50;68.70;;;;;;5102660;28;20028;-37
2021/11/11 10:35:20;;;;;;;8.60;6.97;;;16.50;69.10;;;;;;5102481;28;20027;-37
2021/11/11 10:37:50;;;;;;;8.73;7.30;;;16.70;69.50;;;;;;5097241;28;20028;-37
2021/11/11 10:40:35;;;;;;;8.30;7.13;;;16.70;69.50;;;;;;5082156;28;20025;-37
2021/11/11 10:43:05;;;;;;;8.15;7.35;;;16.70;69.20;;;;;;5081991;28;20056;-37
2021/11/11 10:45:32;;;;;;;8.07;7.28;;;16.70;69.20;;;;;;5080402;28;20033;-37
2021/11/11 10:48:00;;;;;;;8.27;7.40;;;16.70;69.20;;;;;;5082551;28;20048;-38
2021/11/11 10:50:46;;;;;;;7.90;7.07;;;16.70;69.20;;;;;;5085841;28;20035;-37
2021/11/11 10:53:13;;;;;;;8.23;7.18;;;16.60;69.20;;;;;;5085932;28;20046;-37
2021/11/11 10:55:50;;;;;;;7.78;6.97;;;16.60;69.00;;;;;;5084326;28;20405;-37
2021/11/11 10:58:18;;;;;;;7.75;6.80;;;16.60;69.70;;;;;;5085583;28;20025;-37
2021/11/11 11:01:00;;;;;;;8.77;7.40;;;16.60;69.00;;;;;;5085439;28;20028;-37
2021/11/11 11:03:31;;;;;;;8.40;7.57;;;16.60;68.90;;;;;;5084306;28;20025;-37
2021/11/11 11:06:02;;;;;;;8.07;6.97;;;16.60;68.90;;;;;;5085342;28;20113;-38
2021/11/11 11:08:37;;;;;;;8.48;7.57;;;16.60;68.90;;;;;;5084240;28;20029;-37
2021/11/11 11:11:07;;;;;;;7.65;6.85;;;16.50;68.80;;;;;;5085364;28;20105;-37
2021/11/11 11:13:41;;;;;;;8.77;7.43;;;16.60;68.80;;;;;;5095026;28;20061;-37
2021/11/11 11:16:11;;;;;;;7.82;7.03;;;16.50;69.50;;;;;;5105752;28;20122;-37
2021/11/11 11:19:10;;;;;;;7.70;7.00;;;16.60;69.30;;;;;;5105404;28;20042;-37
2021/11/11 11:21:48;;;;;;;7.70;6.90;;;16.70;69.50;;;;;;5105461;28;20580;-37
2021/11/11 11:24:15;;;;;;;;;;;16.70;69.40;;;;;;5106074;28;20058;-37
2021/11/11 11:26:49;;;;;;;7.88;7.07;;;16.70;69.30;;;;;;5105321;28;19916;-37
2021/11/11 11:29:31;;;;;;;8.52;7.18;;;16.70;69.20;;;;;;5105361;28;20020;-37
2021/11/11 11:32:06;;;;;;;7.65;6.82;;;16.60;69.20;;;;;;5104868;28;20028;-37
2021/11/11 11:34:36;;;;;;;7.35;6.53;;;16.60;69.20;;;;;;5105511;28;20042;-37
2021/11/11 11:37:04;;;;;;;8.82;7.05;;;16.60;69.10;;;;;;5105405;28;20125;-37
2021/11/11 11:39:36;;;;;;;8.02;6.97;;;16.60;69.00;;;;;;5104120;28;20032;-37
2021/11/11 11:42:08;;;;;;;8.07;7.15;;;16.60;69.00;;;;;;5105156;28;20078;-37
2021/11/11 11:44:40;;;;;;;8.32;7.20;;;16.60;69.00;;;;;;5093124;28;20681;-38
2021/11/11 11:47:46;;;;;;;7.38;6.68;;;16.60;69.00;;;;;;5102657;28;20033;-37
2021/11/11 11:50:23;;;;;;;7.32;6.63;;;16.60;69.00;;;;;;5084572;28;20060;-37
2021/11/11 11:53:01;;;;;;;7.38;6.60;;;16.70;69.70;;;;;;5084711;28;20032;-38
2021/11/11 11:55:33;;;;;;;7.78;6.82;;;16.70;69.70;;;;;;5084810;28;20166;-37
2021/11/11 12:03:25;;;;;;;7.72;6.93;;;16.70;69.40;;;;;;5084528;28;20088;-37
2021/11/11 12:14:36;;;;;;;7.93;7.07;;;16.70;69.30;;;;;;5095887;28;20025;-37
2021/11/11 12:34:35;;;;;;;7.38;6.68;;;16.60;69.00;;;;;;5083761;28;20081;-37
2021/11/11 12:40:04;;;;;;;7.72;6.93;;;16.70;69.70;;;;;;5083819;28;20145;-37
2021/11/11 12:42:54;;;;;;;8.25;6.30;;;16.80;69.70;;;;;;5084385;28;20105;-37
2021/11/11 12:45:31;;;;;;;6.95;6.25;;;16.80;69.60;;;;;;5103285;28;20024;-37
2021/11/11 12:48:01;;;;;;;7.70;6.90;;;16.70;69.50;;;;;;5102653;28;20032;-38
2021/11/11 12:50:39;;;;;;;7.97;6.78;;;16.70;69.50;;;;;;5103858;28;20031;-37
2021/11/11 12:53:14;;;;;;;7.25;6.55;;;16.70;69.50;;;;;;5103833;28;20024;-37
2021/11/11 12:55:59;;;;;;;6.82;6.15;;;16.70;69.40;;;;;;5103641;28;20024;-37
2021/11/11 12:58:38;;;;;;;7.50;6.78;;;16.70;69.40;;;;;;5102205;28;20024;-38
2021/11/11 13:01:28;;;;;;;6.88;6.10;;;16.70;69.30;;;;;;5103723;28;20028;-37
2021/11/11 13:04:02;;;;;;;6.72;6.03;;;16.70;69.30;;;;;;5103523;28;20586;-37
2021/11/11 13:06:49;;;;;;;7.13;6.43;;;16.70;69.20;;;;;;5103174;28;20060;-37
2021/11/11 13:09:22;;;;;;;7.30;6.05;;;16.60;69.10;;;;;;5086181;28;20040;-37
2021/11/11 13:11:56;;;;;;;7.82;6.75;;;16.60;69.10;;;;;;5082541;28;20035;-37
2021/11/11 13:14:30;;;;;;;7.78;6.47;;;16.60;69.10;;;;;;5094504;28;20023;-37
2021/11/11 13:16:59;;;;;;;8.02;6.90;;;16.60;69.00;;;;;;5083238;28;20036;-36
2021/11/11 13:19:37;;;;;;;6.95;6.25;;;16.70;69.40;;;;;;5083100;28;20029;-37
2021/11/11 13:22:20;;;;;;;7.35;6.60;;;16.70;69.70;;;;;;5083074;28;20020;-38
2021/11/11 13:24:58;;;;;;;6.88;6.18;;;16.80;69.80;;;;;;5089771;28;20026;-37
2021/11/11 13:27:55;;;;;;;;;;;16.80;69.70;;;;;;5103475;28;20043;-37
2021/11/11 15:18:32;;;;;;;4.95;4.45;;;16.80;69.40;;;;;;5085481;28;20032;-37
2021/11/11 15:57:31;;;;;;;4.15;3.75;;;16.90;69.30;;;;;;5104691;28;20784;-37
2021/11/11 16:26:25;;;;;;;4.45;4.03;;;17.00;69.60;;;;;;5094512;28;20042;-37
2021/11/11 16:28:56;;;;;;;4.63;4.13;;;17.00;69.60;;;;;;5084124;28;20623;-37
2021/11/11 16:31:22;;;;;;;4.93;4.20;;;17.10;69.80;;;;;;5083869;28;20029;-37
2021/11/11 16:33:49;;;;;;;4.63;4.07;;;17.10;69.70;;;;;;5084272;28;20033;-37
2021/11/11 16:36:16;;;;;;;4.45;4.05;;;17.10;69.70;;;;;;5095892;28;20536;-37
2021/11/11 16:38:42;;;;;;;4.38;3.97;;;17.10;69.70;;;;;;5103149;28;20040;-37
2021/11/11 16:41:08;;;;;;;4.45;4.05;;;17.10;69.70;;;;;;5104257;28;20028;-37
2021/11/11 16:43:35;;;;;;;4.70;3.80;;;17.10;69.70;;;;;;5103543;28;20047;-37
2021/11/11 16:46:01;;;;;;;4.83;4.10;;;17.10;69.70;;;;;;5103025;28;20040;-37
2021/11/11 16:48:27;;;;;;;4.35;3.95;;;17.10;69.70;;;;;;5086013;28;20033;-37
2021/11/11 16:50:54;;;;;;;4.32;3.92;;;17.10;69.70;;;;;;5083849;28;20020;-37
2021/11/11 16:53:20;;;;;;;4.45;4.05;;;17.20;69.70;;;;;;5083692;28;20028;-37
2021/11/11 16:55:46;;;;;;;3.92;3.53;;;17.20;69.70;;;;;;5083761;28;20031;-37